You are listening to:
CYYZ Tower - Toronto, Ontario, Canada

CYYZ 241437Z 35016G24KT 15SM BKN019 OVC041 04/M00 A2999 RMK SC7SC1 SLP163

If stream doesn't start automatically press the play button
If stream stops then reload player then press play